createdAt,value
2023-01-05T00:00:09.366Z,0.22
2023-01-05T00:04:12.601Z,0.28
2023-01-05T00:08:17.945Z,0.47
2023-01-05T00:12:38.321Z,0.20
2023-01-05T00:16:59.129Z,0.10
2023-01-05T00:21:21.501Z,0.40
2023-01-05T00:25:28.366Z,0.00
2023-01-05T00:29:31.497Z,0.17
2023-01-05T00:33:34.665Z,0.10
2023-01-05T00:37:38.933Z,0.00
2023-01-05T00:41:43.666Z,0.08
2023-01-05T00:45:46.941Z,2.03
2023-01-05T00:49:49.902Z,0.80
2023-01-05T00:53:54.534Z,0.22
2023-01-05T00:57:59.056Z,0.10
2023-01-05T01:02:02.426Z,0.10
2023-01-05T01:06:05.886Z,0.17
2023-01-05T01:10:10.563Z,1.40
2023-01-05T01:14:15.133Z,0.22
2023-01-05T01:18:18.358Z,0.20
2023-01-05T01:22:21.277Z,0.73
2023-01-05T01:26:24.425Z,0.22
2023-01-05T01:30:29.015Z,0.65
2023-01-05T01:34:32.259Z,0.55
2023-01-05T01:38:36.006Z,7.03
2023-01-05T01:42:39.255Z,0.88
2023-01-05T01:46:44.001Z,2.10
2023-01-05T01:50:52.719Z,0.10
2023-01-05T01:54:56.836Z,0.15
2023-01-05T01:59:00.593Z,0.10
2023-01-05T02:03:06.530Z,0.73
2023-01-05T02:07:13.609Z,0.00
2023-01-05T02:11:34.038Z,1.10
2023-01-05T02:15:46.183Z,0.10
2023-01-05T02:20:28.171Z,0.10
2023-01-05T02:24:52.304Z,1.00
2023-01-05T02:29:25.780Z,0.85
2023-01-05T02:33:55.389Z,0.10
2023-01-05T02:38:06.878Z,0.10
2023-01-05T02:42:14.677Z,0.22
2023-01-05T02:46:17.815Z,2.08
2023-01-05T02:50:30.100Z,0.00
2023-01-05T02:54:39.759Z,0.45
2023-01-05T02:58:45.937Z,0.10
2023-01-05T03:02:51.727Z,0.13
2023-01-05T03:07:01.253Z,0.10
2023-01-05T03:11:25.058Z,0.28
2023-01-05T03:15:31.719Z,0.03
2023-01-05T03:19:40.654Z,0.00
2023-01-05T03:24:02.667Z,0.00
2023-01-05T03:28:27.771Z,0.10
2023-01-05T03:32:51.610Z,0.00
2023-01-05T03:36:59.678Z,0.32
2023-01-05T03:41:09.418Z,0.08
2023-01-05T03:45:13.494Z,0.00
2023-01-05T03:49:18.031Z,0.10
2023-01-05T03:53:21.021Z,1.27
2023-01-05T03:57:25.732Z,0.05
2023-01-05T04:01:29.122Z,0.30
2023-01-05T04:05:32.268Z,0.38
2023-01-05T04:09:35.631Z,0.32
2023-01-05T04:13:40.159Z,0.05
2023-01-05T04:17:43.401Z,0.00
2023-01-05T04:21:46.723Z,0.10
2023-01-05T04:25:49.755Z,0.10
2023-01-05T04:29:54.510Z,0.10
2023-01-05T04:33:57.607Z,0.28
2023-01-05T04:38:00.739Z,0.10
2023-01-05T04:42:03.898Z,0.00
2023-01-05T04:46:09.385Z,0.10
2023-01-05T04:50:12.914Z,0.00
2023-01-05T04:54:16.046Z,0.10
2023-01-05T04:58:19.633Z,0.00
2023-01-05T05:02:24.457Z,0.35
2023-01-05T05:06:27.869Z,0.00
2023-01-05T05:10:31.269Z,0.22
2023-01-05T05:14:34.454Z,0.05
2023-01-05T05:18:38.757Z,0.00
2023-01-05T05:22:41.951Z,0.50
2023-01-05T05:26:45.400Z,0.10
2023-01-05T05:30:49.908Z,0.20
2023-01-05T05:34:54.409Z,0.08
2023-01-05T05:38:59.043Z,0.08
2023-01-05T05:43:02.504Z,0.10
2023-01-05T05:47:05.842Z,0.00
2023-01-05T05:51:10.412Z,0.00
2023-01-05T05:55:13.697Z,0.10
2023-01-05T05:59:17.031Z,0.03
2023-01-05T06:03:19.999Z,0.00
2023-01-05T06:07:26.788Z,0.00
2023-01-05T06:11:30.027Z,0.77
2023-01-05T06:15:34.268Z,0.00
2023-01-05T06:19:37.331Z,0.10
2023-01-05T06:23:42.003Z,0.13
2023-01-05T06:27:45.140Z,0.00
2023-01-05T06:31:50.082Z,0.00
2023-01-05T06:35:53.407Z,0.00
2023-01-05T06:39:57.762Z,0.10
2023-01-05T06:44:00.909Z,0.30
2023-01-05T06:48:04.046Z,0.10
2023-01-05T06:52:10.868Z,0.00
2023-01-05T06:56:20.655Z,0.10
2023-01-05T07:00:24.349Z,0.10
2023-01-05T07:04:27.911Z,0.10
2023-01-05T07:08:31.185Z,0.20
2023-01-05T07:12:37.708Z,0.40
2023-01-05T07:16:40.978Z,0.35
2023-01-05T07:20:44.103Z,0.00
2023-01-05T07:24:47.176Z,0.30
2023-01-05T07:28:51.656Z,0.17
2023-01-05T07:32:58.685Z,1.85
2023-01-05T07:37:03.594Z,0.10
2023-01-05T07:41:06.918Z,0.20
2023-01-05T07:45:12.696Z,0.65
2023-01-05T07:49:16.692Z,0.10
2023-01-05T07:53:20.134Z,0.57
2023-01-05T07:57:23.248Z,0.28
2023-01-05T08:01:27.717Z,0.00
2023-01-05T08:05:34.509Z,0.22
2023-01-05T08:09:55.298Z,0.00
2023-01-05T08:14:01.117Z,0.00
2023-01-05T08:18:05.555Z,0.00
2023-01-05T08:22:08.618Z,0.57
2023-01-05T08:26:14.486Z,0.10
2023-01-05T08:30:17.789Z,0.20
2023-01-05T08:34:22.308Z,0.00
2023-01-05T08:38:25.613Z,0.10
2023-01-05T08:42:28.749Z,0.00
2023-01-05T08:46:33.898Z,0.52
2023-01-05T08:50:38.816Z,0.10
2023-01-05T08:54:42.105Z,0.15
2023-01-05T08:58:45.664Z,0.15
2023-01-05T09:02:49.203Z,0.20
2023-01-05T09:06:54.094Z,0.20
2023-01-05T09:10:58.085Z,0.10
2023-01-05T09:15:01.524Z,0.65
2023-01-05T09:19:04.928Z,0.10
2023-01-05T09:23:09.553Z,0.17
2023-01-05T09:27:12.720Z,0.63
2023-01-05T09:31:18.376Z,0.08
2023-01-05T09:35:22.669Z,0.10
2023-01-05T09:39:27.379Z,0.30
2023-01-05T09:43:39.804Z,0.10
2023-01-05T09:47:46.906Z,0.22
2023-01-05T09:51:55.522Z,0.20
2023-01-05T09:56:01.386Z,0.90
2023-01-05T10:00:08.588Z,0.70
2023-01-05T10:04:16.509Z,0.17
2023-01-05T10:08:26.438Z,0.40
2023-01-05T10:13:01.280Z,0.17
2023-01-05T10:17:38.993Z,0.20
2023-01-05T10:21:37.683Z,0.93
2023-01-05T10:29:54.796Z,0.00
2023-01-05T10:34:11.501Z,0.50
2023-01-05T10:38:29.321Z,0.00
2023-01-05T10:42:47.745Z,0.10
2023-01-05T10:46:53.156Z,0.05
2023-01-05T10:50:57.179Z,0.50
2023-01-05T10:55:01.867Z,2.85
2023-01-05T10:59:10.599Z,0.35
2023-01-05T11:03:18.290Z,0.20
2023-01-05T11:07:21.553Z,1.63
2023-01-05T11:11:27.312Z,1.38
2023-01-05T11:15:32.556Z,0.95
2023-01-05T11:19:42.489Z,1.75
2023-01-05T11:23:49.468Z,1.15
2023-01-05T11:28:12.598Z,0.70
2023-01-05T11:32:16.752Z,0.30
2023-01-05T11:36:21.536Z,0.32
2023-01-05T11:40:28.873Z,2.00
2023-01-05T11:44:33.600Z,0.30
2023-01-05T11:48:37.408Z,2.60
2023-01-05T11:52:44.143Z,2.22
2023-01-05T11:56:48.925Z,3.28
2023-01-05T12:01:08.942Z,7.03
2023-01-05T12:05:24.619Z,1.83
2023-01-05T12:09:35.514Z,8.85
2023-01-05T12:13:55.843Z,5.78
2023-01-05T12:18:15.217Z,1.15
2023-01-05T12:22:39.308Z,0.32
2023-01-05T12:26:51.836Z,0.50
2023-01-05T12:33:35.497Z,3.30
2023-01-05T12:40:23.261Z,3.80
2023-01-05T12:44:56.119Z,3.42
2023-01-05T12:49:03.049Z,5.88
2023-01-05T12:53:21.253Z,5.43
2023-01-05T12:57:34.525Z,6.18
2023-01-05T13:01:44.449Z,10.75
2023-01-05T13:05:55.371Z,9.07
2023-01-05T13:10:03.437Z,4.38
2023-01-05T13:14:12.115Z,3.67
2023-01-05T13:18:20.013Z,2.67
2023-01-05T13:22:25.389Z,5.82
2023-01-05T13:26:37.449Z,3.90
2023-01-05T13:30:53.465Z,1.33
2023-01-05T13:35:36.093Z,5.63
2023-01-05T13:39:57.413Z,2.08
2023-01-05T13:44:41.545Z,5.82
2023-01-05T13:49:05.003Z,3.20
2023-01-05T13:53:16.205Z,6.63
2023-01-05T13:57:23.137Z,1.27
2023-01-05T14:01:38.331Z,6.47
2023-01-05T14:05:50.820Z,1.17
2023-01-05T14:09:58.222Z,1.50
2023-01-05T14:14:05.303Z,2.42
2023-01-05T14:18:09.474Z,3.97
2023-01-05T14:22:39.753Z,6.32
2023-01-05T14:27:05.798Z,5.80
2023-01-05T14:31:44.118Z,6.10
2023-01-05T14:35:48.454Z,1.73
2023-01-05T14:39:57.129Z,5.45
2023-01-05T14:44:22.420Z,12.40
2023-01-05T14:48:32.515Z,7.35
2023-01-05T14:52:57.585Z,2.38
2023-01-05T14:57:38.051Z,5.65
2023-01-05T15:01:51.863Z,4.32
2023-01-05T15:06:01.400Z,3.83
2023-01-05T15:10:26.180Z,2.25
2023-01-05T15:14:56.595Z,2.13
2023-01-05T15:19:43.298Z,0.73
2023-01-05T15:24:16.133Z,1.98
2023-01-05T15:28:42.062Z,4.72
2023-01-05T15:32:49.554Z,1.67
2023-01-05T15:37:05.419Z,7.40
2023-01-05T15:41:12.388Z,1.75
2023-01-05T15:45:20.097Z,6.38
2023-01-05T15:49:30.574Z,2.22
2023-01-05T15:53:38.618Z,4.45
2023-01-05T15:57:42.955Z,4.18
2023-01-05T16:01:46.511Z,0.90
2023-01-05T16:05:50.285Z,1.95
2023-01-05T16:09:55.047Z,2.17
2023-01-05T16:14:05.027Z,6.43
2023-01-05T16:18:11.929Z,2.58
2023-01-05T16:22:20.295Z,2.17
2023-01-05T16:26:28.588Z,0.70
2023-01-05T16:30:35.551Z,2.47
2023-01-05T16:34:38.713Z,9.07
2023-01-05T16:38:43.692Z,3.83
2023-01-05T16:42:50.828Z,9.40
2023-01-05T16:47:07.975Z,8.20
2023-01-05T16:51:14.129Z,6.05
2023-01-05T16:55:29.217Z,3.63
2023-01-05T17:04:15.872Z,2.42
2023-01-05T17:08:22.519Z,3.70
2023-01-05T17:12:25.697Z,5.45
2023-01-05T17:16:34.900Z,4.03
2023-01-05T17:20:42.000Z,10.60
2023-01-05T17:24:46.407Z,5.15
2023-01-05T17:28:50.900Z,2.70
2023-01-05T17:33:00.212Z,2.78
2023-01-05T17:37:03.704Z,4.93
2023-01-05T17:41:07.382Z,1.67
2023-01-05T17:45:12.654Z,9.07
2023-01-05T17:49:22.787Z,4.93
2023-01-05T17:53:25.992Z,5.25
2023-01-05T17:57:30.087Z,6.88
2023-01-05T18:01:34.358Z,9.15
2023-01-05T18:05:39.196Z,8.32
2023-01-05T18:09:42.378Z,8.45
2023-01-05T18:13:45.949Z,5.32
2023-01-05T18:17:50.489Z,4.72
2023-01-05T18:21:56.751Z,4.60
2023-01-05T18:26:07.869Z,7.85
2023-01-05T18:30:13.269Z,5.20
2023-01-05T18:34:16.512Z,12.38
2023-01-05T18:38:21.510Z,9.13
2023-01-05T18:42:25.043Z,4.18
2023-01-05T18:46:30.241Z,13.57
2023-01-05T18:50:35.345Z,2.78
2023-01-05T18:54:43.091Z,5.53
2023-01-05T18:58:46.282Z,9.70
2023-01-05T19:02:50.019Z,4.53
2023-01-05T19:06:53.249Z,5.47
2023-01-05T19:10:57.688Z,11.38
2023-01-05T19:15:01.319Z,8.48
2023-01-05T19:19:08.720Z,14.15
2023-01-05T19:23:12.213Z,5.50
2023-01-05T19:27:19.135Z,4.75
2023-01-05T19:31:26.192Z,7.03
2023-01-05T19:35:31.444Z,4.10
2023-01-05T19:39:35.144Z,8.50
2023-01-05T19:43:41.360Z,5.07
2023-01-05T19:47:44.504Z,7.25
2023-01-05T19:51:48.374Z,7.38
2023-01-05T19:55:52.851Z,3.78
2023-01-05T20:00:14.573Z,2.92
2023-01-05T20:04:20.005Z,5.35
2023-01-05T20:08:23.920Z,2.30
2023-01-05T20:12:27.274Z,5.05
2023-01-05T20:16:34.466Z,6.05
2023-01-05T20:20:37.794Z,9.45
2023-01-05T20:24:44.097Z,5.13
2023-01-05T20:28:50.585Z,2.13
2023-01-05T20:33:22.177Z,4.03
2023-01-05T20:37:27.357Z,5.97
2023-01-05T20:41:32.901Z,5.78
2023-01-05T20:45:36.155Z,3.00
2023-01-05T20:49:41.823Z,2.83
2023-01-05T20:53:51.923Z,7.95
2023-01-05T20:57:56.953Z,1.90
2023-01-05T21:02:01.589Z,1.73
2023-01-05T21:06:06.918Z,1.67
2023-01-05T21:10:13.033Z,6.40
2023-01-05T21:14:19.858Z,9.07
2023-01-05T21:18:27.385Z,10.77
2023-01-05T21:22:32.092Z,7.28
2023-01-05T21:26:36.376Z,8.65
2023-01-05T21:30:39.829Z,8.32
2023-01-05T21:34:45.453Z,1.40
2023-01-05T21:39:01.711Z,3.25
2023-01-05T21:43:06.770Z,9.65
2023-01-05T21:47:10.173Z,6.32
2023-01-05T21:51:30.773Z,10.25
2023-01-05T21:55:59.206Z,8.10
2023-01-05T22:00:03.395Z,6.75
2023-01-05T22:04:07.548Z,10.98
2023-01-05T22:08:11.008Z,4.13
2023-01-05T22:12:15.657Z,7.38
2023-01-05T22:16:18.915Z,6.55
2023-01-05T22:20:24.297Z,2.45
2023-01-05T22:24:27.197Z,3.25
2023-01-05T22:28:32.078Z,6.22
2023-01-05T22:32:36.368Z,10.30
2023-01-05T22:36:39.563Z,7.85
2023-01-05T22:40:42.797Z,2.20
2023-01-05T22:44:47.403Z,5.93
2023-01-05T22:48:52.311Z,4.05
2023-01-05T22:52:55.476Z,12.73
2023-01-05T22:56:58.667Z,8.77
2023-01-05T23:01:10.102Z,6.13
2023-01-05T23:05:14.282Z,3.70
2023-01-05T23:09:18.522Z,4.65
2023-01-05T23:13:23.192Z,8.27
2023-01-05T23:17:28.297Z,5.13
2023-01-05T23:21:31.940Z,4.90
2023-01-05T23:25:35.088Z,5.15
2023-01-05T23:29:38.751Z,4.40
2023-01-05T23:33:45.233Z,7.20
2023-01-05T23:37:48.369Z,10.35
2023-01-05T23:41:53.925Z,6.75
2023-01-05T23:46:02.029Z,11.02
2023-01-05T23:50:08.171Z,4.30
2023-01-05T23:54:11.350Z,7.95
2023-01-05T23:58:15.347Z,5.05
